PRXXI SNGN-SDAG
Flight info
| Callsign | PRXXI |
|---|---|
| Flight time | N/A |
| Altitude | 38000 |
| Route | OPTUR UZ30 SIPOR UZ73 ASGIK UZ21 KORKA UZ29 ISKOM UZ10 SIDUR |
| Aircraft | C750/M-SBDE3FGHRWXY/S |
Departure
| Time | 2026-04-21 12:13 |
|---|---|
| Airport | Garanhuns Airport (SNGN) |
Arrival
| Time | N/A |
|---|---|
| Airport | Angra dos Reis Airport (SDAG) |
| Time | Latitude | Longitude | Altitude | Speed | Heading |
|---|---|---|---|---|---|
| 2026-04-21 12:07 | -8.83817 | -36.46952 | 2464 ft | 0 kts | 223° |
| 2026-04-21 12:10 | -8.83812 | -36.46944 | 2462 ft | 0 kts | 201° |
| 2026-04-21 12:10 | -8.83818 | -36.46936 | 2462 ft | 1 kts | 117° |
| 2026-04-21 12:10 | -8.83792 | -36.46905 | 2460 ft | 13 kts | 44° |
| 2026-04-21 12:10 | -8.83750 | -36.46819 | 2461 ft | 11 kts | 142° |
| 2026-04-21 12:11 | -8.83802 | -36.46764 | 2459 ft | 11 kts | 135° |
| 2026-04-21 12:11 | -8.83829 | -36.46751 | 2458 ft | 0 kts | 147° |
| 2026-04-21 12:11 | -8.83830 | -36.46750 | 2458 ft | 1 kts | 129° |
| 2026-04-21 12:11 | -8.83824 | -36.46749 | 2460 ft | 0 kts | 359° |
| 2026-04-21 12:12 | -8.83819 | -36.46754 | 2461 ft | 3 kts | 319° |
| 2026-04-21 12:12 | -8.83813 | -36.46759 | 2461 ft | 0 kts | 317° |
| 2026-04-21 12:12 | -8.83712 | -36.46859 | 2461 ft | 64 kts | 315° |
| 2026-04-21 12:12 | -8.83131 | -36.47441 | 2460 ft | 156 kts | 315° |
| 2026-04-21 12:13 | -8.82315 | -36.48218 | 2903 ft | 165 kts | 318° |
| 2026-04-21 12:13 | -8.81403 | -36.49046 | 3169 ft | 194 kts | 317° |
| 2026-04-21 12:13 | -8.80443 | -36.50162 | 3342 ft | 227 kts | 296° |
| 2026-04-21 12:13 | -8.80279 | -36.51826 | 3490 ft | 261 kts | 256° |
| 2026-04-21 12:14 | -8.81274 | -36.53418 | 4010 ft | 270 kts | 216° |
| 2026-04-21 12:14 | -8.82954 | -36.54073 | 4991 ft | 263 kts | 188° |
| 2026-04-21 12:14 | -8.84787 | -36.54229 | 5840 ft | 266 kts | 182° |
| 2026-04-21 12:14 | -8.86641 | -36.54496 | 6642 ft | 272 kts | 190° |
| 2026-04-21 12:15 | -8.88469 | -36.55037 | 7504 ft | 276 kts | 196° |
| 2026-04-21 12:15 | -8.90314 | -36.55644 | 8417 ft | 280 kts | 195° |
| 2026-04-21 12:15 | -8.92203 | -36.56183 | 9353 ft | 284 kts | 193° |
| 2026-04-21 12:15 | -8.94129 | -36.56703 | 10178 ft | 289 kts | 193° |
| 2026-04-21 12:16 | -8.96127 | -36.57266 | 10506 ft | 311 kts | 194° |
| 2026-04-21 12:16 | -8.98304 | -36.57896 | 10576 ft | 339 kts | 194° |
| 2026-04-21 12:16 | -9.00646 | -36.58568 | 10838 ft | 355 kts | 194° |
| 2026-04-21 12:16 | -9.03020 | -36.59244 | 11600 ft | 355 kts | 194° |
| 2026-04-21 12:17 | -9.05553 | -36.59964 | 12239 ft | 361 kts | 194° |
| 2026-04-21 12:17 | -9.07981 | -36.60657 | 12885 ft | 365 kts | 194° |
| 2026-04-21 12:17 | -9.10441 | -36.61359 | 13538 ft | 369 kts | 194° |
| 2026-04-21 12:17 | -9.12932 | -36.62070 | 14129 ft | 374 kts | 194° |
| 2026-04-21 12:18 | -9.15448 | -36.62787 | 14685 ft | 378 kts | 194° |
| 2026-04-21 12:18 | -9.17992 | -36.63513 | 15226 ft | 382 kts | 194° |
| 2026-04-21 12:18 | -9.20565 | -36.64247 | 15771 ft | 386 kts | 194° |
| 2026-04-21 12:18 | -9.23084 | -36.65137 | 16209 ft | 394 kts | 206° |
| 2026-04-21 12:19 | -9.25383 | -36.66733 | 16807 ft | 396 kts | 216° |
| 2026-04-21 12:19 | -9.27563 | -36.68387 | 17412 ft | 400 kts | 216° |
| 2026-04-21 12:19 | -9.29817 | -36.70064 | 18001 ft | 404 kts | 216° |
| 2026-04-21 12:19 | -9.32099 | -36.71751 | 18575 ft | 408 kts | 216° |
| 2026-04-21 12:20 | -9.34392 | -36.73463 | 19158 ft | 411 kts | 216° |
| 2026-04-21 12:20 | -9.36702 | -36.75197 | 19729 ft | 415 kts | 216° |
| 2026-04-21 12:20 | -9.39031 | -36.76937 | 20342 ft | 418 kts | 216° |
| 2026-04-21 12:20 | -9.41384 | -36.78689 | 20968 ft | 421 kts | 217° |
| 2026-04-21 12:21 | -9.43754 | -36.80458 | 21579 ft | 425 kts | 217° |
| 2026-04-21 12:21 | -9.46142 | -36.82245 | 22184 ft | 428 kts | 217° |
| 2026-04-21 12:21 | -9.48547 | -36.84044 | 22789 ft | 432 kts | 217° |
| 2026-04-21 12:21 | -9.50979 | -36.85859 | 23388 ft | 436 kts | 217° |
| 2026-04-21 12:22 | -9.53426 | -36.87687 | 23926 ft | 439 kts | 217° |
| 2026-04-21 12:22 | -9.55890 | -36.89530 | 24461 ft | 441 kts | 217° |
| 2026-04-21 12:22 | -9.58363 | -36.91380 | 24997 ft | 443 kts | 217° |
| 2026-04-21 12:22 | -9.60852 | -36.93241 | 25533 ft | 446 kts | 218° |
| 2026-04-21 12:23 | -9.63357 | -36.95114 | 26091 ft | 448 kts | 218° |
| 2026-04-21 12:23 | -9.65873 | -36.96997 | 26688 ft | 451 kts | 218° |
| 2026-04-21 12:23 | -9.67547 | -36.98250 | 27040 ft | 453 kts | 218° |
| 2026-04-21 12:23 | -9.70956 | -37.00801 | 27749 ft | 457 kts | 218° |
| 2026-04-21 12:24 | -9.72650 | -37.02073 | 28098 ft | 458 kts | 219° |
| 2026-04-21 12:24 | -9.75182 | -37.04059 | 28595 ft | 462 kts | 220° |
| 2026-04-21 12:24 | -9.77740 | -37.06044 | 29136 ft | 464 kts | 219° |
| 2026-04-21 12:24 | -9.80318 | -37.08032 | 29635 ft | 467 kts | 220° |
| 2026-04-21 12:25 | -9.82903 | -37.10047 | 30123 ft | 470 kts | 220° |
| 2026-04-21 12:25 | -9.85500 | -37.12080 | 30521 ft | 473 kts | 220° |
| 2026-04-21 12:25 | -9.88115 | -37.14118 | 30898 ft | 476 kts | 220° |
| 2026-04-21 12:25 | -9.90788 | -37.16109 | 31389 ft | 476 kts | 219° |
| 2026-04-21 12:26 | -9.93448 | -37.18099 | 31980 ft | 474 kts | 219° |
| 2026-04-21 12:26 | -9.96089 | -37.20099 | 32489 ft | 474 kts | 219° |
| 2026-04-21 12:26 | -9.98739 | -37.22090 | 33011 ft | 474 kts | 219° |
| 2026-04-21 12:26 | -10.01391 | -37.24067 | 33540 ft | 473 kts | 219° |
| 2026-04-21 12:27 | -10.04039 | -37.26046 | 34058 ft | 473 kts | 219° |
| 2026-04-21 12:27 | -10.06678 | -37.28032 | 34556 ft | 471 kts | 219° |
| 2026-04-21 12:27 | -10.09304 | -37.30006 | 35120 ft | 468 kts | 219° |
| 2026-04-21 12:27 | -10.11919 | -37.31964 | 35681 ft | 466 kts | 219° |
| 2026-04-21 12:28 | -10.14519 | -37.33912 | 36237 ft | 463 kts | 219° |
| 2026-04-21 12:28 | -10.17067 | -37.35826 | 36791 ft | 461 kts | 219° |
| 2026-04-21 12:28 | -10.19640 | -37.37760 | 37369 ft | 459 kts | 219° |
| 2026-04-21 12:28 | -10.22198 | -37.39679 | 37920 ft | 455 kts | 219° |
| 2026-04-21 12:29 | -10.24763 | -37.41606 | 37988 ft | 465 kts | 219° |
| 2026-04-21 12:29 | -10.27397 | -37.43588 | 38004 ft | 476 kts | 219° |
| 2026-04-21 12:29 | -10.30084 | -37.45607 | 38010 ft | 486 kts | 219° |
| 2026-04-21 12:30 | -10.35617 | -37.49762 | 38023 ft | 502 kts | 219° |
| 2026-04-21 12:30 | -10.41291 | -37.54029 | 38024 ft | 511 kts | 219° |